Time;durP1;ratioP1;P1;durP2;ratioP2;P2;SDS_P1;SDS_P2;PMS_P1;PMS_P2;Temp;Humidity;BMP_temperature;BMP_pressure;BME280_temperature;BME280_humidity;BME280_pressure;Samples;Min_cycle;Max_cycle;Signal;HPM_P1;HPM_P2
2022/12/04 00:01:08;;;;;;;116.70;35.20;;;;;;;-0.45;100.00;101820.03;4889031;29;20052;-75
2022/12/04 00:03:34;;;;;;;116.88;36.72;;;;;;;-0.43;100.00;101815.66;4886698;29;20071;-75
2022/12/04 00:06:13;;;;;;;118.90;37.40;;;;;;;-0.45;100.00;101819.16;4888166;29;20383;-74
2022/12/04 00:08:39;;;;;;;124.20;38.00;;;;;;;-0.47;100.00;101820.91;4888371;29;20049;-75
2022/12/04 00:11:05;;;;;;;116.95;39.08;;;;;;;-0.45;100.00;101816.53;4887929;29;20112;-72
2022/12/04 00:13:32;;;;;;;117.30;37.08;;;;;;;-0.45;100.00;101806.03;4888857;29;20464;-75
2022/12/04 00:15:58;;;;;;;113.53;37.30;;;;;;;-0.44;100.00;101811.31;4889980;29;20045;-74
2022/12/04 00:18:24;;;;;;;117.63;38.63;;;;;;;-0.42;100.00;101808.66;4887391;29;20051;-75
2022/12/04 00:20:49;;;;;;;127.82;38.95;;;;;;;-0.44;100.00;101806.06;4887599;29;20059;-73
2022/12/04 00:23:15;;;;;;;118.18;36.00;;;;;;;-0.46;100.00;101799.06;4886415;29;20048;-74
2022/12/04 00:25:40;;;;;;;115.45;35.40;;;;;;;-0.44;100.00;101800.81;4887589;29;20048;-75
2022/12/04 00:28:06;;;;;;;122.68;38.05;;;;;;;-0.45;100.00;101798.19;4887604;29;20067;-75
2022/12/04 00:30:31;;;;;;;124.30;37.38;;;;;;;-0.44;100.00;101802.56;4885888;29;20526;-74
2022/12/04 00:32:57;;;;;;;117.43;39.03;;;;;;;-0.46;100.00;101805.19;4887010;29;20032;-74
2022/12/04 00:35:22;;;;;;;117.82;36.55;;;;;;;-0.41;100.00;101799.94;4887626;29;20396;-74
2022/12/04 00:37:47;;;;;;;118.65;36.72;;;;;;;-0.41;100.00;101806.03;4887424;29;20577;-73
2022/12/04 00:40:13;;;;;;;119.00;36.85;;;;;;;-0.43;100.00;101801.69;4887767;29;20044;-73
2022/12/04 00:42:38;;;;;;;114.78;39.35;;;;;;;-0.45;100.00;101806.94;4887830;29;20072;-75
2022/12/04 00:45:04;;;;;;;120.25;36.45;;;;;;;-0.45;100.00;101806.03;4874813;29;20127;-74
2022/12/04 00:47:30;;;;;;;109.63;36.45;;;;;;;-0.39;100.00;101803.44;4887894;29;20037;-74
2022/12/04 00:49:55;;;;;;;118.25;38.60;;;;;;;-0.43;100.00;101799.94;4887851;29;20430;-75
2022/12/04 00:52:21;;;;;;;109.95;35.22;;;;;;;-0.44;100.00;101797.34;4887540;29;20079;-75
2022/12/04 00:54:46;;;;;;;114.03;37.30;;;;;;;-0.41;100.00;101798.19;4887033;29;20640;-74
2022/12/04 00:57:11;;;;;;;134.32;38.78;;;;;;;-0.42;100.00;101792.94;4885769;29;20040;-74
2022/12/04 00:59:37;;;;;;;129.98;38.72;;;;;;;-0.42;100.00;101798.19;4886798;29;20047;-74
2022/12/04 01:02:03;;;;;;;117.15;38.67;;;;;;;-0.42;100.00;101798.19;4886981;29;20144;-73
2022/12/04 01:04:28;;;;;;;109.45;35.00;;;;;;;-0.43;100.00;101801.69;4886947;29;20048;-73
2022/12/04 01:06:54;;;;;;;116.05;36.58;;;;;;;-0.42;100.00;101799.06;4885139;29;20040;-74
2022/12/04 01:09:19;;;;;;;120.07;38.38;;;;;;;-0.39;100.00;101804.31;4887019;29;20657;-74
2022/12/04 01:11:45;;;;;;;112.53;35.70;;;;;;;-0.39;100.00;101804.31;4886591;29;20740;-74
2022/12/04 01:14:10;;;;;;;110.28;34.72;;;;;;;-0.38;100.00;101799.94;4885014;29;20626;-75
2022/12/04 01:16:37;;;;;;;114.38;37.50;;;;;;;-0.41;100.00;101808.66;4886518;29;20047;-75
2022/12/04 01:19:08;;;;;;;108.57;35.20;;;;;;;-0.40;100.00;101815.66;4866961;29;20041;-74
2022/12/04 01:21:35;;;;;;;120.40;36.55;;;;;;;-0.38;100.00;101813.03;4882678;29;20341;-72
2022/12/04 01:24:01;;;;;;;117.68;35.38;;;;;;;-0.38;100.00;101810.41;4886895;29;20040;-73
2022/12/04 01:26:26;;;;;;;114.65;34.58;;;;;;;-0.38;100.00;101805.16;4881761;29;21572;-74
2022/12/04 01:28:52;;;;;;;123.90;38.70;;;;;;;-0.37;100.00;101806.91;4887022;29;20076;-75
2022/12/04 01:31:19;;;;;;;127.72;38.10;;;;;;;-0.35;100.00;101805.16;4874113;29;20127;-75
2022/12/04 01:33:45;;;;;;;110.97;37.17;;;;;;;-0.36;100.00;101806.03;4887429;29;20693;-74
2022/12/04 01:36:14;;;;;;;109.22;36.20;;;;;;;-0.36;100.00;101804.28;4887265;29;20044;-75
2022/12/04 01:38:41;;;;;;;111.03;34.47;;;;;;;-0.35;100.00;101810.38;4878610;29;20037;-74
2022/12/04 01:41:08;;;;;;;131.73;40.30;;;;;;;-0.34;100.00;101809.53;4890574;29;20056;-74
2022/12/04 01:43:35;;;;;;;110.97;37.20;;;;;;;-0.34;100.00;101802.53;4888959;29;20053;-75
2022/12/04 01:46:02;;;;;;;114.47;36.10;;;;;;;-0.33;100.00;101811.28;4890633;29;20135;-73
2022/12/04 01:48:45;;;;;;;109.50;34.47;;;;;;;-0.33;100.00;101809.53;4890494;29;20477;-74
2022/12/04 01:51:16;;;;;;;118.43;37.38;;;;;;;-0.33;100.00;101796.41;4891130;29;20397;-75
2022/12/04 01:53:48;;;;;;;107.47;35.13;;;;;;;-0.34;100.00;101794.69;4877333;29;20040;-74
2022/12/04 01:56:15;;;;;;;112.70;37.37;;;;;;;-0.35;100.00;101790.31;4889790;29;20037;-75
2022/12/04 01:58:45;;;;;;;111.95;36.45;;;;;;;-0.29;100.00;101802.53;4890895;29;20492;-74
2022/12/04 02:01:10;;;;;;;129.93;40.33;;;;;;;-0.34;100.00;101791.19;4891245;29;20055;-74
2022/12/04 02:03:37;;;;;;;122.25;37.28;;;;;;;-0.34;100.00;101794.69;4891488;29;20055;-75
2022/12/04 02:06:04;;;;;;;113.60;36.72;;;;;;;-0.31;100.00;101793.78;4891724;29;20044;-76
2022/12/04 02:08:30;;;;;;;125.05;40.25;;;;;;;-0.32;100.00;101792.91;4891419;29;20077;-73
2022/12/04 02:11:28;;;;;;;115.82;37.78;;;;;;;-0.33;100.00;101788.56;4891594;29;20805;-75
2022/12/04 02:14:12;;;;;;;116.03;38.40;;;;;;;-0.33;100.00;101796.41;4891910;29;20086;-73
2022/12/04 02:16:54;;;;;;;126.20;40.05;;;;;;;-0.31;100.00;101793.78;4891420;29;20059;-75
2022/12/04 02:19:56;;;;;;;116.60;37.58;;;;;;;-0.34;100.00;101788.56;4879341;29;20048;-74
2022/12/04 02:22:55;;;;;;;116.28;37.78;;;;;;;-0.31;100.00;101799.03;4889967;29;20513;-74
2022/12/04 02:25:58;;;;;;;127.18;38.38;;;;;;;-0.30;100.00;101799.03;4889580;29;20044;-74
2022/12/04 02:28:41;;;;;;;122.20;39.33;;;;;;;-0.32;100.00;101792.91;4890958;29;20084;-75
2022/12/04 02:31:16;;;;;;;119.70;40.88;;;;;;;-0.32;100.00;101787.69;4891156;29;20032;-74
2022/12/04 02:33:47;;;;;;;115.40;38.50;;;;;;;-0.33;100.00;101791.19;4895019;29;20561;-74
2022/12/04 02:36:22;;;;;;;124.03;39.10;;;;;;;-0.31;100.00;101788.53;4895151;29;20036;-72
2022/12/04 02:39:14;;;;;;;106.30;35.75;;;;;;;-0.35;100.00;101784.19;4895197;29;20045;-75
2022/12/04 02:41:43;;;;;;;108.20;34.73;;;;;;;-0.37;100.00;101780.72;4884828;29;20036;-74
2022/12/04 02:44:23;;;;;;;127.00;37.83;;;;;;;-0.35;100.00;101779.84;4896581;29;20055;-74
2022/12/04 02:46:56;;;;;;;117.85;38.42;;;;;;;-0.36;100.00;101785.94;4894429;29;20052;-74
2022/12/04 02:49:27;;;;;;;118.60;35.65;;;;;;;-0.36;100.00;101783.31;4892701;29;20151;-74
2022/12/04 02:51:56;;;;;;;110.43;34.67;;;;;;;-0.38;100.00;101779.84;4895629;29;20041;-74
2022/12/04 02:54:32;;;;;;;113.07;35.28;;;;;;;-0.35;100.00;101776.31;4895798;29;20040;-74
2022/12/04 02:56:58;;;;;;;116.60;40.03;;;;;;;-0.37;100.00;101776.34;4894796;29;20756;-74
2022/12/04 02:59:35;;;;;;;116.88;38.70;;;;;;;-0.41;100.00;101768.50;4896404;29;20044;-72
2022/12/04 03:02:08;;;;;;;121.35;38.10;;;;;;;-0.33;100.00;101764.09;4898973;29;20060;-74
2022/12/04 03:04:35;;;;;;;125.57;39.03;;;;;;;-0.35;100.00;101765.84;4885914;29;20048;-74
2022/12/04 03:07:05;;;;;;;114.10;34.63;;;;;;;-0.40;100.00;101760.66;4909282;29;20044;-74
2022/12/04 03:09:43;;;;;;;128.15;38.13;;;;;;;-0.39;100.00;101762.38;4893713;29;20881;-76
2022/12/04 03:12:15;;;;;;;121.97;38.67;;;;;;;-0.41;100.00;101769.34;4880961;29;20511;-73
2022/12/04 03:14:47;;;;;;;127.85;39.72;;;;;;;-0.38;100.00;101766.75;4892682;29;20076;-75
2022/12/04 03:17:28;;;;;;;115.20;37.83;;;;;;;-0.35;100.00;101766.75;4880671;29;20052;-75
2022/12/04 03:19:58;;;;;;;122.30;36.10;;;;;;;-0.35;100.00;101766.75;4892844;29;20048;-73
2022/12/04 03:22:26;;;;;;;120.47;38.17;;;;;;;-0.37;100.00;101773.72;4894533;29;20040;-74
2022/12/04 03:24:54;;;;;;;111.38;35.33;;;;;;;-0.36;100.00;101770.22;4891978;29;20048;-74
2022/12/04 03:27:50;;;;;;;111.03;37.90;;;;;;;-0.36;100.00;101770.22;4885533;29;20045;-73
2022/12/04 03:30:21;;;;;;;104.85;34.38;;;;;;;-0.34;100.00;101772.84;4887868;29;20053;-75
2022/12/04 03:33:05;;;;;;;105.47;36.00;;;;;;;-0.37;100.00;101772.84;4890900;29;20106;-73
2022/12/04 03:35:37;;;;;;;111.60;37.53;;;;;;;-0.36;100.00;101772.84;4886300;29;20117;-74
2022/12/04 03:38:05;;;;;;;114.85;36.92;;;;;;;-0.33;100.00;101772.84;4890951;29;20040;-74
2022/12/04 03:40:38;;;;;;;117.18;37.55;;;;;;;-0.34;100.00;101762.38;4890478;29;20079;-75
2022/12/04 03:43:11;;;;;;;118.30;36.25;;;;;;;-0.34;100.00;101762.38;4890842;29;20045;-74
2022/12/04 03:45:49;;;;;;;120.65;39.00;;;;;;;-0.34;100.00;101755.38;4889066;29;20037;-75
2022/12/04 03:48:25;;;;;;;119.22;35.75;;;;;;;-0.31;100.00;101755.34;4888876;29;20054;-74
2022/12/04 03:51:03;;;;;;;114.18;34.17;;;;;;;-0.35;100.00;101757.97;4890459;29;20125;-74
2022/12/04 03:53:42;;;;;;;106.50;35.45;;;;;;;-0.37;100.00;101755.38;4889253;29;20079;-72
2022/12/04 03:56:19;;;;;;;111.05;36.63;;;;;;;-0.36;100.00;101751.00;4890116;29;20048;-73
2022/12/04 03:58:56;;;;;;;125.93;37.83;;;;;;;-0.37;100.00;101759.75;4888078;29;20037;-73
2022/12/04 04:01:29;;;;;;;108.93;36.63;;;;;;;-0.38;100.00;101760.63;4888735;29;20044;-74
2022/12/04 04:03:57;;;;;;;113.28;36.20;;;;;;;-0.37;100.00;101760.63;4887941;29;20044;-73
2022/12/04 04:06:52;;;;;;;112.63;36.65;;;;;;;-0.39;100.00;101770.25;4889634;29;20375;-74
2022/12/04 04:09:22;;;;;;;107.05;37.60;;;;;;;-0.39;100.00;101762.38;4880566;29;20104;-75
2022/12/04 04:12:02;;;;;;;119.70;36.50;;;;;;;-0.36;100.00;101758.88;4888372;29;20036;-76
2022/12/04 04:26:05;;;;;;;107.20;36.63;;;;;;;-0.38;100.00;101768.50;4888311;29;20036;-72
2022/12/04 04:28:38;;;;;;;118.75;38.10;;;;;;;-0.37;100.00;101765.00;4883861;29;20037;-74
2022/12/04 04:31:21;;;;;;;113.25;36.72;;;;;;;-0.34;100.00;101771.09;4889099;29;20711;-76
2022/12/04 04:34:02;;;;;;;104.75;36.33;;;;;;;-0.35;100.00;101766.75;4888040;29;20103;-75
2022/12/04 04:36:30;;;;;;;117.32;35.90;;;;;;;-0.36;100.00;101764.97;4875771;29;20048;-74
2022/12/04 04:39:11;;;;;;;116.07;35.40;;;;;;;-0.38;100.00;101748.41;4886446;29;20048;-74
2022/12/04 04:41:55;;;;;;;103.03;32.83;;;;;;;-0.40;100.00;101759.75;4875953;29;20036;-75
2022/12/04 04:44:29;;;;;;;111.38;36.85;;;;;;;-0.38;100.00;101760.63;4879632;29;20041;-74
2022/12/04 04:46:59;;;;;;;103.00;33.40;;;;;;;-0.37;100.00;101762.38;4887886;29;20757;-73
2022/12/04 04:49:28;;;;;;;99.60;33.42;;;;;;;-0.38;100.00;101763.25;4888873;29;20029;-73
2022/12/04 04:51:54;;;;;;;110.28;33.10;;;;;;;-0.39;100.00;101765.00;4886448;29;20128;-75
2022/12/04 04:54:20;;;;;;;114.03;36.67;;;;;;;-0.38;100.00;101765.88;4887625;29;20043;-74
2022/12/04 04:56:46;;;;;;;103.28;32.90;;;;;;;-0.34;100.00;101771.09;4886409;29;20053;-75
2022/12/04 04:59:12;;;;;;;105.20;35.78;;;;;;;-0.32;100.00;101771.94;4887606;29;20674;-73
2022/12/04 05:01:40;;;;;;;104.57;37.95;;;;;;;-0.36;100.00;101775.44;4885891;29;20044;-75
2022/12/04 05:04:06;;;;;;;113.22;35.47;;;;;;;-0.36;100.00;101770.22;4883909;29;20049;-75
2022/12/04 05:06:32;;;;;;;117.70;37.55;;;;;;;-0.35;100.00;101769.38;4887500;29;20067;-73
2022/12/04 05:08:58;;;;;;;106.18;35.88;;;;;;;-0.37;100.00;101773.72;4887770;29;20123;-75
2022/12/04 05:11:23;;;;;;;109.10;37.42;;;;;;;-0.35;100.00;101774.59;4887266;29;20262;-75
2022/12/04 05:13:49;;;;;;;107.30;35.58;;;;;;;-0.31;100.00;101765.81;4889431;29;20132;-73
2022/12/04 05:16:15;;;;;;;100.03;37.78;;;;;;;-0.36;100.00;101770.22;4891988;29;20128;-76
2022/12/04 05:19:52;;;;;;;107.22;35.25;;;;;;;-0.37;100.00;101773.72;4889810;29;20033;-74
2022/12/04 05:21:26;;;;;;;103.10;33.38;;;;;;;-0.36;100.00;101766.72;4884937;29;20502;-73
2022/12/04 05:23:52;;;;;;;106.80;36.20;;;;;;;-0.35;100.00;101765.84;4889496;29;20100;-75
2022/12/04 05:26:17;;;;;;;112.85;36.13;;;;;;;-0.37;100.00;101778.09;4891340;29;20052;-75
2022/12/04 05:28:43;;;;;;;100.03;34.17;;;;;;;-0.36;100.00;101766.72;4889053;29;20041;-73
2022/12/04 05:31:08;;;;;;;101.53;32.47;;;;;;;-0.36;100.00;101767.59;4889872;29;20106;-74
2022/12/04 05:33:33;;;;;;;101.22;32.70;;;;;;;-0.36;100.00;101771.97;4888070;29;20282;-75
2022/12/04 05:36:02;;;;;;;101.15;33.83;;;;;;;-0.38;100.00;101761.50;4891057;29;20051;-73
2022/12/04 05:38:28;;;;;;;110.65;35.83;;;;;;;-0.34;100.00;101772.84;4891004;29;20040;-74
2022/12/04 05:40:53;;;;;;;109.47;34.78;;;;;;;-0.33;100.00;101767.59;4889791;29;20044;-72
2022/12/04 05:43:19;;;;;;;103.47;34.90;;;;;;;-0.34;100.00;101767.59;4890129;29;20060;-73
2022/12/04 05:45:44;;;;;;;112.00;33.40;;;;;;;-0.35;100.00;101768.47;4886682;29;20052;-73
2022/12/04 05:48:10;;;;;;;103.53;32.72;;;;;;;-0.32;100.00;101760.59;4891523;29;20045;-73
2022/12/04 05:50:37;;;;;;;110.68;33.47;;;;;;;-0.34;100.00;101765.00;4883950;29;20048;-74
2022/12/04 05:53:03;;;;;;;101.03;32.65;;;;;;;-0.34;100.00;101755.38;4881713;29;20087;-75
2022/12/04 05:55:28;;;;;;;96.25;32.22;;;;;;;-0.36;100.00;101749.25;4889436;29;20577;-74
2022/12/04 05:57:54;;;;;;;96.05;33.03;;;;;;;-0.36;100.00;101761.47;4890323;29;20045;-74
2022/12/04 06:00:19;;;;;;;91.18;31.20;;;;;;;-0.36;100.00;101757.13;4890527;29;20044;-75
2022/12/04 06:02:44;;;;;;;101.43;33.53;;;;;;;-0.37;100.00;101746.66;4890346;29;20096;-73
2022/12/04 06:05:10;;;;;;;102.03;33.15;;;;;;;-0.37;100.00;101746.66;4889592;29;20052;-74
2022/12/04 06:07:35;;;;;;;99.70;32.63;;;;;;;-0.34;100.00;101749.28;4889419;29;20140;-75
2022/12/04 06:10:01;;;;;;;100.88;34.72;;;;;;;-0.34;100.00;101755.38;4888712;29;20048;-74
2022/12/04 06:12:26;;;;;;;105.57;33.70;;;;;;;-0.32;100.00;101756.22;4890582;29;20395;-74
2022/12/04 06:14:51;;;;;;;112.70;34.78;;;;;;;-0.34;100.00;101757.13;4889039;29;20084;-74
2022/12/04 06:17:17;;;;;;;99.05;32.38;;;;;;;-0.29;100.00;101756.22;4890703;29;20520;-73
2022/12/04 06:19:42;;;;;;;101.07;32.05;;;;;;;-0.31;100.00;101751.84;4890557;29;20040;-74
2022/12/04 06:22:08;;;;;;;96.95;31.10;;;;;;;-0.30;100.00;101758.88;4890423;29;20079;-75
2022/12/04 06:24:33;;;;;;;98.20;34.05;;;;;;;-0.23;100.00;101749.22;4889977;29;20164;-74
2022/12/04 06:26:59;;;;;;;100.85;32.17;;;;;;;-0.27;100.00;101748.34;4890480;29;20136;-74
2022/12/04 06:29:25;;;;;;;105.57;31.90;;;;;;;-0.26;100.00;101745.72;4890578;29;20055;-74
2022/12/04 06:31:50;;;;;;;90.40;31.27;;;;;;;-0.28;100.00;101746.63;4890791;29;20808;-74
2022/12/04 06:34:16;;;;;;;99.32;33.55;;;;;;;-0.27;100.00;101743.97;4890852;29;20083;-76
2022/12/04 06:36:42;;;;;;;104.00;31.77;;;;;;;-0.27;100.00;101746.59;4890841;29;20036;-75
2022/12/04 06:39:09;;;;;;;99.80;31.25;;;;;;;-0.26;100.00;101745.72;4890475;29;20451;-74
2022/12/04 06:41:34;;;;;;;101.25;33.28;;;;;;;-0.27;100.00;101746.59;4888732;29;20040;-73
2022/12/04 06:44:00;;;;;;;98.20;32.00;;;;;;;-0.22;100.00;101749.19;4890813;29;20421;-74
2022/12/04 06:46:28;;;;;;;91.45;33.25;;;;;;;-0.19;100.00;101748.34;4890142;29;20139;-75
2022/12/04 06:48:55;;;;;;;91.20;30.38;;;;;;;-0.26;100.00;101748.34;4888952;29;20442;-74
2022/12/04 06:51:29;;;;;;;92.28;30.48;;;;;;;-0.22;100.00;101748.34;4885525;29;20052;-73
2022/12/04 06:53:54;;;;;;;103.63;32.17;;;;;;;-0.24;100.00;101750.09;4882223;29;20534;-74
2022/12/04 06:56:23;;;;;;;95.53;31.52;;;;;;;-0.27;100.00;101757.09;4891370;29;20049;-74
2022/12/04 06:58:52;;;;;;;101.90;30.92;;;;;;;-0.21;100.00;101758.81;4895242;29;20047;-75
2022/12/04 07:01:19;;;;;;;94.63;30.67;;;;;;;-0.17;100.00;101760.53;4882975;29;20158;-74
2022/12/04 07:03:46;;;;;;;99.00;31.83;;;;;;;-0.18;100.00;101763.19;4891879;29;20187;-74
2022/12/04 07:06:15;;;;;;;96.30;31.42;;;;;;;-0.20;100.00;101764.91;4894917;29;20044;-73
2022/12/04 07:08:41;;;;;;;83.93;28.13;;;;;;;-0.16;100.00;101770.13;4889050;29;20037;-74
2022/12/04 07:11:07;;;;;;;88.75;29.67;;;;;;;-0.18;100.00;101768.41;4890069;29;20068;-75
2022/12/04 07:13:32;;;;;;;89.82;29.30;;;;;;;-0.16;100.00;101767.50;4895356;29;20603;-75
2022/12/04 07:16:03;;;;;;;81.47;26.83;;;;;;;-0.18;100.00;101771.03;4894397;29;20092;-75
2022/12/04 07:18:31;;;;;;;91.70;31.10;;;;;;;-0.17;100.00;101772.78;4894338;29;20179;-75
2022/12/04 07:20:56;;;;;;;81.38;27.25;;;;;;;-0.17;100.00;101778.00;4895634;29;20128;-74
2022/12/04 07:23:22;;;;;;;90.03;30.13;;;;;;;-0.15;100.00;101779.78;4895418;29;20066;-73
2022/12/04 07:25:47;;;;;;;95.40;30.90;;;;;;;-0.13;100.00;101782.38;4893544;29;20041;-72
2022/12/04 07:28:12;;;;;;;88.22;31.25;;;;;;;-0.12;100.00;101782.34;4889232;29;20045;-75
2022/12/04 07:30:38;;;;;;;97.70;28.05;;;;;;;-0.14;100.00;101783.25;4893658;29;20044;-74
2022/12/04 07:33:04;;;;;;;88.43;28.92;;;;;;;-0.13;100.00;101779.75;4895468;29;20105;-74
2022/12/04 07:35:30;;;;;;;86.95;30.35;;;;;;;-0.12;100.00;101781.50;4889503;29;20107;-73
2022/12/04 07:37:55;;;;;;;90.30;31.10;;;;;;;-0.13;100.00;101778.00;4889238;29;20051;-74
2022/12/04 07:40:21;;;;;;;93.72;30.38;;;;;;;-0.10;100.00;101780.63;4895428;29;20108;-75
2022/12/04 07:42:46;;;;;;;89.50;29.88;;;;;;;-0.09;100.00;101774.50;4878221;29;20103;-74
2022/12/04 07:45:12;;;;;;;108.40;31.42;;;;;;;-0.07;100.00;101784.97;4894173;29;20037;-74
2022/12/04 07:47:37;;;;;;;80.70;26.58;;;;;;;-0.09;100.00;101782.34;4889715;29;20056;-75
2022/12/04 07:50:04;;;;;;;96.18;30.35;;;;;;;-0.08;100.00;101791.09;4893043;29;20044;-74
2022/12/04 07:52:30;;;;;;;94.22;30.83;;;;;;;-0.05;100.00;101781.47;4892902;29;20032;-74
2022/12/04 07:54:56;;;;;;;89.25;27.02;;;;;;;-0.07;100.00;101788.44;4892851;29;20051;-74
2022/12/04 07:57:22;;;;;;;96.05;30.23;;;;;;;-0.03;100.00;101784.06;4899628;29;20741;-74
2022/12/04 07:59:47;;;;;;;93.40;30.27;;;;;;;-0.01;100.00;101782.31;4890401;29;20045;-74
2022/12/04 08:02:15;;;;;;;90.18;28.70;;;;;;;-0.03;100.00;101784.06;4887105;29;20060;-75
2022/12/04 08:04:41;;;;;;;106.25;30.20;;;;;;;-0.04;100.00;101791.06;4891371;29;20132;-75
2022/12/04 08:07:06;;;;;;;97.38;31.65;;;;;;;-0.03;100.00;101784.06;4885795;29;20139;-75
2022/12/04 08:09:31;;;;;;;113.80;33.38;;;;;;;-0.05;100.00;101789.34;4882442;29;20076;-74
2022/12/04 08:11:57;;;;;;;92.82;29.45;;;;;;;-0.06;100.00;101797.19;4883810;29;20042;-73
2022/12/04 08:14:22;;;;;;;91.13;30.30;;;;;;;-0.08;100.00;101793.72;4888879;29;20066;-73
2022/12/04 08:16:48;;;;;;;86.82;29.98;;;;;;;-0.09;100.00;101792.84;4886360;29;20060;-74
2022/12/04 08:19:14;;;;;;;88.40;29.80;;;;;;;-0.03;100.00;101797.19;4885623;29;20056;-73
2022/12/04 08:21:39;;;;;;;90.13;30.90;;;;;;;-0.07;100.00;101800.69;4887752;29;20139;-74
2022/12/04 08:24:05;;;;;;;90.43;32.25;;;;;;;-0.06;100.00;101807.66;4879475;29;20693;-75
2022/12/04 08:26:32;;;;;;;96.10;29.30;;;;;;;-0.06;100.00;101805.91;4883951;29;20573;-75
2022/12/04 08:29:00;;;;;;;87.57;30.80;;;;;;;-0.07;100.00;101804.19;4884008;29;20040;-74
2022/12/04 08:31:27;;;;;;;89.38;30.98;;;;;;;-0.05;100.00;101807.69;4883241;29;20047;-73
2022/12/04 08:33:55;;;;;;;93.22;29.80;;;;;;;-0.04;100.00;101806.81;4884640;29;20055;-73
2022/12/04 08:36:21;;;;;;;87.85;29.83;;;;;;;-0.02;100.00;101812.91;4882068;29;20044;-75
2022/12/04 08:38:48;;;;;;;95.95;32.25;;;;;;;-0.01;100.00;101814.63;4877713;29;20069;-75
2022/12/04 08:41:16;;;;;;;82.05;27.58;;;;;;;-0.03;100.00;101810.28;4880508;29;20041;-74
2022/12/04 08:43:41;;;;;;;95.18;28.25;;;;;;;-0.03;100.00;101813.78;4882270;29;20116;-74
2022/12/04 08:46:14;;;;;;;89.88;28.73;;;;;;;0.00;100.00;101802.44;4886082;29;20063;-75
2022/12/04 08:48:39;;;;;;;;;;;;;;;0.04;100.00;101813.75;4879850;29;20052;-74
2022/12/04 08:51:08;;;;;;;86.03;27.63;;;;;;;0.01;100.00;101811.16;4887022;29;19923;-75
2022/12/04 08:53:37;;;;;;;82.13;28.05;;;;;;;0.03;100.00;101810.25;4881548;29;20035;-74
2022/12/04 08:56:03;;;;;;;86.97;27.00;;;;;;;0.01;100.00;101806.78;4887724;29;20607;-75
2022/12/04 08:58:29;;;;;;;85.78;29.10;;;;;;;0.06;100.00;101807.63;4886668;29;20037;-73
2022/12/04 09:00:54;;;;;;;87.68;28.55;;;;;;;0.07;100.00;101809.38;4887373;29;20128;-72
2022/12/04 09:03:21;;;;;;;83.05;28.40;;;;;;;0.03;100.00;101818.13;4887049;29;20043;-74
2022/12/04 09:05:46;;;;;;;95.18;30.63;;;;;;;0.07;100.00;101808.50;4885465;29;20048;-74
2022/12/04 09:08:14;;;;;;;85.75;28.20;;;;;;;0.10;100.00;101805.84;4890016;29;20036;-75
2022/12/04 09:10:40;;;;;;;81.63;28.65;;;;;;;0.11;100.00;101797.13;4895900;29;20060;-73
2022/12/04 09:13:06;;;;;;;74.65;25.58;;;;;;;0.14;100.00;101802.34;4887947;29;20541;-75
2022/12/04 09:15:32;;;;;;;66.65;24.67;;;;;;;0.15;100.00;101802.34;4887758;29;20095;-74
2022/12/04 09:17:58;;;;;;;79.72;27.27;;;;;;;0.18;100.00;101796.19;4882062;29;20049;-74
2022/12/04 09:20:23;;;;;;;77.03;26.67;;;;;;;0.17;100.00;101807.59;4885799;29;20128;-71
2022/12/04 09:22:49;;;;;;;66.05;25.33;;;;;;;0.20;100.00;101799.69;4885153;29;20048;-75
2022/12/04 09:25:15;;;;;;;79.40;26.25;;;;;;;0.22;100.00;101798.81;4887428;29;20052;-74
2022/12/04 09:27:40;;;;;;;66.63;23.00;;;;;;;0.26;100.00;101802.28;4887252;29;20067;-75
2022/12/04 09:30:07;;;;;;;61.85;24.60;;;;;;;0.35;100.00;101801.34;4887342;29;20044;-75
2022/12/04 09:32:33;;;;;;;58.47;20.25;;;;;;;0.35;100.00;101803.97;4885810;29;20439;-74
2022/12/04 09:34:58;;;;;;;61.00;22.08;;;;;;;0.32;100.00;101801.38;4887193;29;20072;-72
2022/12/04 09:37:23;;;;;;;56.28;20.17;;;;;;;0.36;100.00;101801.34;4887559;29;20204;-73
2022/12/04 09:39:49;;;;;;;56.92;20.52;;;;;;;0.37;100.00;101804.84;4887667;29;20123;-74
2022/12/04 09:42:39;;;;;;;51.92;19.63;;;;;;;0.38;100.00;101798.72;4887394;29;20061;-72
2022/12/04 09:45:10;;;;;;;49.13;19.73;;;;;;;0.39;100.00;101803.94;4887196;29;20077;-72
2022/12/04 09:47:42;;;;;;;48.55;19.85;;;;;;;0.48;100.00;101796.03;4887311;29;20475;-74
2022/12/04 09:50:43;;;;;;;53.55;18.75;;;;;;;0.51;100.00;101798.63;4885904;29;20037;-74
2022/12/04 09:53:23;;;;;;;44.72;17.90;;;;;;;0.54;100.00;101792.47;4883802;29;20100;-75
2022/12/04 09:56:03;;;;;;;46.67;17.50;;;;;;;0.53;100.00;101788.13;4885301;29;20036;-74
2022/12/04 09:58:40;;;;;;;46.88;18.10;;;;;;;0.61;100.00;101794.19;4887961;29;20063;-76
2022/12/04 10:01:31;;;;;;;47.60;18.65;;;;;;;0.58;100.00;101790.72;4890208;29;20066;-75
2022/12/04 10:03:57;;;;;;;46.03;18.77;;;;;;;0.60;100.00;101799.44;4883958;29;20036;-74
2022/12/04 10:06:27;;;;;;;41.45;17.00;;;;;;;0.59;100.00;101795.94;4892753;29;20545;-74
2022/12/04 10:09:00;;;;;;;37.67;15.02;;;;;;;0.61;100.00;101786.34;4898340;29;20067;-74
2022/12/04 10:11:51;;;;;;;41.55;15.82;;;;;;;0.60;100.00;101794.19;4885559;29;20064;-75
2022/12/04 10:14:22;;;;;;;36.58;15.18;;;;;;;0.59;100.00;101789.84;4898178;29;20083;-74
2022/12/04 10:17:16;;;;;;;50.55;17.20;;;;;;;0.56;100.00;101780.25;4889998;29;20037;-75
2022/12/04 10:19:59;;;;;;;51.45;19.33;;;;;;;0.63;100.00;101787.19;4885769;29;20536;-75
2022/12/04 10:22:44;;;;;;;41.72;18.38;;;;;;;0.62;100.00;101785.44;4888493;29;20366;-75
2022/12/04 10:25:23;;;;;;;41.15;16.10;;;;;;;0.62;100.00;101788.06;4894039;29;20131;-75
2022/12/04 10:28:17;;;;;;;41.70;17.05;;;;;;;0.67;100.00;101794.16;4889191;29;20044;-75
2022/12/04 10:30:44;;;;;;;37.50;15.95;;;;;;;0.75;100.00;101789.72;4879380;29;20057;-75
2022/12/04 10:33:20;;;;;;;43.13;17.00;;;;;;;0.79;100.00;101782.69;4886695;29;20036;-73
2022/12/04 10:35:51;;;;;;;43.13;17.35;;;;;;;0.86;100.00;101781.75;4883063;29;20052;-74
2022/12/04 10:38:27;;;;;;;38.70;15.88;;;;;;;0.84;100.00;101793.16;4883582;29;20080;-74
2022/12/04 10:41:10;;;;;;;35.90;14.98;;;;;;;0.87;100.00;101780.88;4885598;29;20044;-77
2022/12/04 10:43:47;;;;;;;44.83;18.00;;;;;;;0.75;100.00;101783.56;4882643;29;20147;-75
2022/12/04 10:46:23;;;;;;;38.85;17.02;;;;;;;0.79;100.00;101774.81;4886637;29;20032;-75
2022/12/04 10:48:51;;;;;;;42.53;17.35;;;;;;;0.81;100.00;101780.06;4887388;29;20045;-75
2022/12/04 10:51:20;;;;;;;40.03;17.08;;;;;;;0.82;100.00;101779.19;4888139;29;20048;-75
2022/12/04 10:53:48;;;;;;;38.08;17.08;;;;;;;0.85;100.00;101776.50;4888014;29;20040;-73
2022/12/04 10:56:19;;;;;;;39.80;15.70;;;;;;;0.85;100.00;101787.00;4879884;29;20116;-74
2022/12/04 10:58:59;;;;;;;36.72;14.88;;;;;;;0.80;100.00;101783.53;4888806;29;20040;-74
2022/12/04 11:01:30;;;;;;;38.30;15.35;;;;;;;0.80;100.00;101781.78;4885573;29;20100;-75
2022/12/04 11:04:06;;;;;;;42.47;19.25;;;;;;;0.83;100.00;101778.28;4888530;29;20040;-75
2022/12/04 11:06:33;;;;;;;37.80;16.92;;;;;;;0.92;100.00;101780.84;4885630;29;20562;-75
2022/12/04 11:09:01;;;;;;;42.50;18.13;;;;;;;0.91;100.00;101774.72;4889537;29;20036;-74
2022/12/04 11:11:32;;;;;;;41.75;16.73;;;;;;;0.99;100.00;101779.88;4887168;29;20057;-76
2022/12/04 11:14:20;;;;;;;38.60;15.90;;;;;;;0.98;100.00;101772.91;4879372;29;20476;-74
2022/12/04 11:16:49;;;;;;;41.40;16.05;;;;;;;0.93;100.00;101775.56;4888885;29;20573;-75
2022/12/04 11:19:23;;;;;;;37.80;15.52;;;;;;;1.00;100.00;101766.75;4889351;29;20897;-74
2022/12/04 11:21:50;;;;;;;42.67;16.77;;;;;;;0.98;100.00;101763.25;4876682;29;20889;-75
2022/12/04 11:24:21;;;;;;;41.95;15.80;;;;;;;0.92;100.00;101762.47;4889599;29;20131;-75